Time;durP1;ratioP1;P1;durP2;ratioP2;P2;SDS_P1;SDS_P2;PMS_P1;PMS_P2;Temp;Humidity;BMP_temperature;BMP_pressure;BME280_temperature;BME280_humidity;BME280_pressure;Samples;Min_cycle;Max_cycle;Signal;HPM_P1;HPM_P2
2022/06/28 00:00:18;;;;;;;4.97;3.70;;;16.20;99.90;;;;;;2078811;28;20902;-69
2022/06/28 00:01:19;;;;;;;5.53;3.65;;;16.20;99.90;;;;;;2077247;28;20029;-69
2022/06/28 00:02:20;;;;;;;4.75;4.18;;;16.20;99.90;;;;;;2078639;28;20032;-69
2022/06/28 00:03:20;;;;;;;5.35;4.30;;;16.10;99.90;;;;;;2078951;28;20500;-69
2022/06/28 00:04:21;;;;;;;4.95;4.47;;;16.10;99.90;;;;;;2077471;28;20501;-69
2022/06/28 00:05:21;;;;;;;5.30;4.40;;;16.10;99.90;;;;;;2077379;28;20554;-69
2022/06/28 00:06:22;;;;;;;5.97;4.00;;;16.10;99.90;;;;;;2077081;28;20552;-69
2022/06/28 00:07:23;;;;;;;7.80;4.72;;;16.10;99.90;;;;;;2077390;28;20033;-69
2022/06/28 00:08:23;;;;;;;5.28;4.18;;;16.10;99.90;;;;;;2079576;28;20393;-69
2022/06/28 00:09:25;;;;;;;5.18;4.57;;;16.10;99.90;;;;;;2078606;28;20025;-69
2022/06/28 00:10:26;;;;;;;5.10;3.75;;;16.10;99.90;;;;;;2079305;28;20034;-69
2022/06/28 00:11:26;;;;;;;4.97;4.20;;;16.10;99.90;;;;;;2077601;28;20088;-69
2022/06/28 00:12:27;;;;;;;5.32;4.82;;;16.10;99.90;;;;;;2069523;28;20631;-69
2022/06/28 00:13:28;;;;;;;7.47;4.45;;;16.10;99.90;;;;;;2069951;28;20030;-69
2022/06/28 00:16:06;;;;;;;4.82;3.33;;;16.00;99.90;;;;;;2077424;28;20030;-69
2022/06/28 00:17:07;;;;;;;6.40;3.88;;;16.10;99.90;;;;;;2077580;28;20381;-69
2022/06/28 00:18:07;;;;;;;4.95;3.65;;;16.00;99.90;;;;;;2076989;28;20025;-69
2022/06/28 00:19:08;;;;;;;3.88;3.58;;;16.00;99.90;;;;;;2078760;28;20014;-69
2022/06/28 00:20:10;;;;;;;4.13;3.50;;;16.00;99.90;;;;;;2077012;28;20068;-69
2022/06/28 00:21:11;;;;;;;4.68;3.70;;;16.00;99.90;;;;;;2076851;28;20100;-69
2022/06/28 00:22:12;;;;;;;4.93;4.38;;;16.00;99.90;;;;;;2078107;28;20381;-69
2022/06/28 00:23:13;;;;;;;3.97;3.65;;;16.00;99.90;;;;;;2078548;28;20034;-69
2022/06/28 00:24:14;;;;;;;4.90;3.75;;;16.00;99.90;;;;;;2079146;28;20028;-69
2022/06/28 00:25:15;;;;;;;5.35;3.65;;;16.00;99.90;;;;;;2078228;28;20018;-69
2022/06/28 00:26:15;;;;;;;3.90;3.53;;;16.00;99.90;;;;;;2078009;28;20499;-69
2022/06/28 00:27:17;;;;;;;5.78;3.83;;;16.00;99.90;;;;;;2076883;28;20401;-69
2022/06/28 00:28:18;;;;;;;4.95;3.63;;;16.00;99.90;;;;;;2074206;28;20025;-69
2022/06/28 00:29:19;;;;;;;5.03;3.90;;;16.00;99.90;;;;;;2078806;28;20056;-69
2022/06/28 00:30:20;;;;;;;4.38;3.95;;;15.90;99.90;;;;;;2077187;28;20755;-69
2022/06/28 00:31:24;;;;;;;3.65;3.35;;;15.90;99.90;;;;;;2076133;28;20038;-69
2022/06/28 00:32:26;;;;;;;3.67;3.38;;;15.90;99.90;;;;;;2076016;28;20052;-69
2022/06/28 00:33:26;;;;;;;4.15;3.75;;;15.90;99.90;;;;;;2079419;28;20025;-69
2022/06/28 00:34:27;;;;;;;6.72;4.65;;;15.90;99.90;;;;;;2077018;28;20064;-69
2022/06/28 00:35:27;;;;;;;4.80;3.00;;;15.90;99.90;;;;;;2076201;28;20544;-69
2022/06/28 00:36:28;;;;;;;4.03;3.47;;;15.90;99.90;;;;;;2078516;28;20021;-69
2022/06/28 00:37:29;;;;;;;4.20;3.80;;;15.90;99.90;;;;;;2076554;28;20087;-69
2022/06/28 00:38:30;;;;;;;5.20;3.50;;;15.90;99.90;;;;;;2076475;28;20025;-69
2022/06/28 00:39:30;;;;;;;5.75;3.38;;;15.90;99.90;;;;;;2078993;28;20026;-69
2022/06/28 00:40:32;;;;;;;3.72;3.42;;;15.90;99.90;;;;;;2078270;28;20110;-69
2022/06/28 00:41:34;;;;;;;6.20;3.85;;;15.90;99.90;;;;;;2077116;28;20428;-69
2022/06/28 00:42:35;;;;;;;4.38;3.40;;;15.90;99.90;;;;;;2077809;28;20105;-69
2022/06/28 00:43:36;;;;;;;5.05;3.92;;;15.90;99.90;;;;;;2079868;28;20034;-69
2022/06/28 00:44:38;;;;;;;5.55;3.35;;;15.90;99.90;;;;;;2075188;28;20037;-69
2022/06/28 00:45:38;;;;;;;5.95;4.03;;;15.90;99.90;;;;;;2074245;28;20036;-69
2022/06/28 00:46:39;;;;;;;4.90;4.13;;;15.90;99.90;;;;;;2076340;28;20040;-69
2022/06/28 00:47:40;;;;;;;4.55;3.70;;;15.90;99.90;;;;;;2075688;28;20041;-69
2022/06/28 00:48:41;;;;;;;4.38;3.78;;;15.90;99.90;;;;;;2076857;28;20025;-69
2022/06/28 00:49:42;;;;;;;4.70;3.80;;;15.90;99.90;;;;;;2076665;28;20489;-69
2022/06/28 00:50:43;;;;;;;6.10;3.75;;;15.90;99.90;;;;;;2077205;28;20033;-69
2022/06/28 00:51:44;;;;;;;4.22;3.83;;;15.80;99.90;;;;;;2076109;28;20390;-69
2022/06/28 00:53:06;;;;;;;6.13;3.95;;;15.80;99.90;;;;;;2077072;28;20217;-69
2022/06/28 00:54:07;;;;;;;6.20;3.90;;;15.80;99.90;;;;;;2075944;28;20025;-69
2022/06/28 00:55:08;;;;;;;4.10;3.75;;;15.80;99.90;;;;;;2076545;28;20073;-69
2022/06/28 00:56:09;;;;;;;5.13;3.65;;;15.80;99.90;;;;;;2078382;28;20029;-69
2022/06/28 00:57:09;;;;;;;5.82;3.67;;;15.80;99.90;;;;;;2078187;28;20465;-69
2022/06/28 00:58:11;;;;;;;4.82;3.83;;;15.80;99.90;;;;;;2079370;28;20021;-69
2022/06/28 00:59:12;;;;;;;6.50;3.85;;;15.80;99.90;;;;;;2078169;28;20417;-69
2022/06/28 01:00:13;;;;;;;4.43;3.83;;;15.80;99.90;;;;;;2079374;28;20025;-69
2022/06/28 01:01:14;;;;;;;3.88;3.22;;;15.80;99.90;;;;;;2074356;28;20026;-69
2022/06/28 01:02:14;;;;;;;4.45;3.17;;;15.80;99.90;;;;;;2074742;28;20069;-69
2022/06/28 01:03:24;;;;;;;3.75;3.40;;;15.80;99.90;;;;;;2075587;28;20060;-69
2022/06/28 01:04:26;;;;;;;4.35;3.03;;;15.80;99.90;;;;;;2076736;28;20049;-69
2022/06/28 01:05:27;;;;;;;5.47;3.05;;;15.70;99.90;;;;;;2078888;28;20022;-69
2022/06/28 01:06:28;;;;;;;4.35;2.92;;;15.70;99.90;;;;;;2077830;28;20044;-69
2022/06/28 01:07:28;;;;;;;4.70;3.50;;;15.70;99.90;;;;;;2076414;28;20064;-69
2022/06/28 01:08:29;;;;;;;5.05;3.80;;;15.70;99.90;;;;;;2074482;28;20046;-69
2022/06/28 01:09:30;;;;;;;5.10;4.00;;;15.70;99.90;;;;;;2077657;28;20774;-69
2022/06/28 01:10:30;;;;;;;5.80;3.20;;;15.70;99.90;;;;;;2075829;28;20029;-69
2022/06/28 01:11:32;;;;;;;3.70;2.90;;;15.70;99.90;;;;;;2078212;28;20068;-69
2022/06/28 01:12:33;;;;;;;6.10;3.55;;;15.70;99.90;;;;;;2076600;28;20022;-69
2022/06/28 01:13:34;;;;;;;4.82;3.78;;;15.70;99.90;;;;;;2073971;28;20084;-69
2022/06/28 01:14:35;;;;;;;7.43;4.80;;;15.70;99.90;;;;;;2079641;28;20480;-69
2022/06/28 01:15:37;;;;;;;5.20;4.47;;;15.70;99.90;;;;;;2077315;28;20036;-69
2022/06/28 01:16:37;;;;;;;4.20;3.40;;;15.70;99.90;;;;;;2074326;28;20025;-69
2022/06/28 01:17:38;;;;;;;4.07;3.55;;;15.70;99.90;;;;;;2077816;28;20022;-69
2022/06/28 01:18:39;;;;;;;4.35;3.90;;;15.70;99.90;;;;;;2078649;28;20093;-69
2022/06/28 01:19:40;;;;;;;4.85;3.60;;;15.70;99.90;;;;;;2075761;28;20378;-69
2022/06/28 01:20:42;;;;;;;3.67;3.28;;;15.70;99.90;;;;;;2069361;28;20045;-69
2022/06/28 01:21:48;;;;;;;4.20;3.45;;;15.60;99.90;;;;;;2067934;28;20034;-69
2022/06/28 01:22:49;;;;;;;4.78;3.65;;;15.60;99.90;;;;;;2076199;28;20112;-69
2022/06/28 01:23:50;;;;;;;3.83;3.53;;;15.60;99.90;;;;;;2076527;28;20045;-69
2022/06/28 01:24:50;;;;;;;4.15;3.75;;;15.60;99.90;;;;;;2072994;28;20084;-69
2022/06/28 01:25:51;;;;;;;4.53;4.10;;;15.60;99.90;;;;;;2074741;28;20067;-69
2022/06/28 01:26:52;;;;;;;4.22;3.50;;;15.60;99.90;;;;;;2078578;28;20036;-69
2022/06/28 01:27:54;;;;;;;3.72;3.38;;;15.60;99.90;;;;;;2076151;28;20021;-69
2022/06/28 01:28:55;;;;;;;4.97;3.60;;;15.60;99.90;;;;;;2079431;28;20487;-69
2022/06/28 01:29:55;;;;;;;3.70;3.20;;;15.60;99.90;;;;;;2079458;28;20511;-69
2022/06/28 01:30:56;;;;;;;3.40;3.08;;;15.60;99.90;;;;;;2078091;28;20022;-69
2022/06/28 01:31:57;;;;;;;4.18;3.08;;;15.60;99.90;;;;;;2078598;28;20407;-69
2022/06/28 01:32:58;;;;;;;3.60;3.28;;;15.60;99.90;;;;;;2073794;28;20022;-69
2022/06/28 01:34:00;;;;;;;3.35;3.05;;;15.60;99.90;;;;;;2079105;28;20049;-69
2022/06/28 01:35:02;;;;;;;4.68;3.50;;;15.60;99.90;;;;;;2076851;28;20025;-69
2022/06/28 01:36:05;;;;;;;5.82;3.88;;;15.60;99.90;;;;;;2076476;28;20083;-69
2022/06/28 01:37:07;;;;;;;3.97;3.58;;;15.60;99.90;;;;;;2073142;28;20025;-69
2022/06/28 01:38:08;;;;;;;7.13;4.07;;;15.50;99.90;;;;;;2078381;28;20104;-69
2022/06/28 01:39:09;;;;;;;4.32;3.53;;;15.50;99.90;;;;;;2075296;28;20053;-69
2022/06/28 01:40:10;;;;;;;5.22;3.17;;;15.50;99.90;;;;;;2077465;28;20022;-69
2022/06/28 01:41:32;;;;;;;3.70;3.40;;;15.50;99.90;;;;;;2077623;28;20026;-69
2022/06/28 01:42:32;;;;;;;4.65;3.70;;;15.50;99.90;;;;;;2073477;28;20060;-69
2022/06/28 01:43:35;;;;;;;4.10;3.50;;;15.50;99.90;;;;;;2075972;28;20076;-69
2022/06/28 01:44:36;;;;;;;4.22;3.83;;;15.40;99.90;;;;;;2079221;28;20033;-69
2022/06/28 01:45:37;;;;;;;4.57;3.25;;;15.40;99.90;;;;;;2074216;28;20018;-69
2022/06/28 01:46:39;;;;;;;3.45;3.00;;;15.40;99.90;;;;;;2078506;28;20033;-69
2022/06/28 01:47:44;;;;;;;4.10;3.60;;;15.40;99.90;;;;;;2077505;28;20525;-69
2022/06/28 01:48:45;;;;;;;5.57;4.22;;;15.40;99.90;;;;;;2079176;28;20128;-69
2022/06/28 01:49:45;;;;;;;5.95;3.80;;;15.40;99.90;;;;;;2078476;28;20030;-69
2022/06/28 01:50:47;;;;;;;8.93;4.53;;;15.40;99.90;;;;;;2076604;28;20109;-69
2022/06/28 01:51:50;;;;;;;4.75;4.35;;;15.40;99.90;;;;;;2078074;28;20112;-69
2022/06/28 01:52:51;;;;;;;5.55;4.50;;;15.40;99.90;;;;;;2077910;28;20029;-69
2022/06/28 01:53:51;;;;;;;6.32;3.83;;;15.30;99.90;;;;;;2076971;28;20060;-69
2022/06/28 01:54:52;;;;;;;7.40;4.57;;;15.30;99.90;;;;;;2077703;28;20584;-69
2022/06/28 01:55:52;;;;;;;5.38;4.35;;;15.40;99.90;;;;;;2075465;28;20032;-69
2022/06/28 01:56:54;;;;;;;5.63;4.60;;;15.40;99.90;;;;;;2079283;28;20046;-69
2022/06/28 01:57:54;;;;;;;4.95;4.18;;;15.40;99.90;;;;;;2078569;28;20537;-69
2022/06/28 01:58:55;;;;;;;5.60;3.97;;;15.30;99.90;;;;;;2078702;28;20397;-69
2022/06/28 01:59:56;;;;;;;5.40;3.92;;;15.30;99.90;;;;;;2077570;28;20018;-69
2022/06/28 02:00:57;;;;;;;5.10;4.15;;;15.30;99.90;;;;;;2077104;28;20393;-69
2022/06/28 02:01:58;;;;;;;5.43;4.20;;;15.30;99.90;;;;;;2076733;28;20033;-69
2022/06/28 02:02:59;;;;;;;7.53;5.45;;;15.30;99.90;;;;;;2077864;28;20101;-69
2022/06/28 02:04:00;;;;;;;5.82;4.70;;;15.30;99.90;;;;;;2078687;28;20024;-69
2022/06/28 02:05:00;;;;;;;5.30;4.70;;;15.30;99.90;;;;;;2078322;28;20020;-69
2022/06/28 02:06:01;;;;;;;4.53;4.10;;;15.30;99.90;;;;;;2076004;28;20100;-69
2022/06/28 02:07:02;;;;;;;4.57;4.18;;;15.30;99.90;;;;;;2076996;28;20549;-69
2022/06/28 02:08:03;;;;;;;4.70;3.92;;;15.30;99.90;;;;;;2078020;28;20525;-69
2022/06/28 02:09:04;;;;;;;5.10;4.63;;;15.30;99.90;;;;;;2075923;28;20733;-69
2022/06/28 02:10:05;;;;;;;5.32;4.75;;;15.30;99.90;;;;;;2077186;28;20441;-69
2022/06/28 02:11:06;;;;;;;6.20;4.30;;;15.30;99.90;;;;;;2077552;28;20047;-69
2022/06/28 02:12:07;;;;;;;4.50;4.05;;;15.30;99.90;;;;;;2076629;28;20437;-69
2022/06/28 02:13:07;;;;;;;5.30;3.70;;;15.30;99.90;;;;;;2077361;28;20380;-69
2022/06/28 02:14:08;;;;;;;5.05;3.80;;;15.30;99.90;;;;;;2077006;28;20651;-69
2022/06/28 02:15:10;;;;;;;5.07;3.80;;;15.30;99.90;;;;;;2076507;28;20473;-69
2022/06/28 02:16:10;;;;;;;4.07;3.72;;;15.30;99.90;;;;;;2077884;28;20516;-69
2022/06/28 02:17:11;;;;;;;5.88;4.50;;;15.30;99.90;;;;;;2077314;28;20033;-69
2022/06/28 02:18:12;;;;;;;6.30;5.60;;;15.30;99.90;;;;;;2076398;28;20044;-69
2022/06/28 02:19:12;;;;;;;7.95;5.60;;;15.30;99.90;;;;;;2074970;28;20017;-69
2022/06/28 02:20:13;;;;;;;6.10;5.45;;;15.30;99.90;;;;;;2075205;28;20136;-69
2022/06/28 02:21:14;;;;;;;8.50;5.05;;;15.30;99.90;;;;;;2077065;28;20041;-69
2022/06/28 02:22:14;;;;;;;6.13;5.53;;;15.30;99.90;;;;;;2075908;28;20147;-69
2022/06/28 02:23:15;;;;;;;6.60;5.40;;;15.30;99.90;;;;;;2077341;28;20060;-69
2022/06/28 02:24:16;;;;;;;7.53;5.18;;;15.30;99.90;;;;;;2075961;28;20590;-69
2022/06/28 02:25:17;;;;;;;8.48;6.38;;;15.20;99.90;;;;;;2077112;28;20053;-69
2022/06/28 02:26:17;;;;;;;7.22;6.18;;;15.20;99.90;;;;;;2078205;28;20033;-69
2022/06/28 02:27:18;;;;;;;6.88;5.70;;;15.20;99.90;;;;;;2078064;28;20056;-69
2022/06/28 02:28:19;;;;;;;7.78;6.15;;;15.20;99.90;;;;;;2076339;28;20018;-69
2022/06/28 02:29:19;;;;;;;7.15;6.03;;;15.20;99.90;;;;;;2075773;28;20032;-69
2022/06/28 02:30:21;;;;;;;8.35;6.20;;;15.20;99.90;;;;;;2077388;28;20036;-69
2022/06/28 02:31:21;;;;;;;7.05;5.78;;;15.20;99.90;;;;;;2076119;28;20378;-69
2022/06/28 02:32:22;;;;;;;7.00;6.28;;;15.20;99.90;;;;;;2076984;28;20040;-69
2022/06/28 02:33:23;;;;;;;6.40;5.75;;;15.20;99.90;;;;;;2078218;28;20073;-69
2022/06/28 02:40:59;;;;;;;6.18;5.57;;;15.10;99.90;;;;;;2074153;28;20026;-69
2022/06/28 02:42:00;;;;;;;7.03;5.25;;;15.10;99.90;;;;;;2074516;28;20022;-69
2022/06/28 02:43:01;;;;;;;7.47;5.50;;;15.10;99.90;;;;;;2075764;28;20029;-69
2022/06/28 02:44:03;;;;;;;6.45;5.85;;;15.10;99.90;;;;;;2075709;28;20109;-69
2022/06/28 02:45:03;;;;;;;10.02;5.93;;;15.10;99.90;;;;;;2075747;28;22035;-69
2022/06/28 02:46:04;;;;;;;10.18;5.55;;;15.10;99.90;;;;;;2075711;28;20571;-69
2022/06/28 02:47:05;;;;;;;6.88;4.93;;;15.10;99.90;;;;;;2077771;28;20032;-69
2022/06/28 02:48:06;;;;;;;5.32;4.82;;;15.10;99.90;;;;;;2077970;28;20788;-69
2022/06/28 02:49:06;;;;;;;4.43;3.97;;;15.10;99.90;;;;;;2075902;28;20017;-69
2022/06/28 02:50:07;;;;;;;5.80;5.00;;;15.10;99.90;;;;;;2077905;28;20524;-69
2022/06/28 02:51:08;;;;;;;5.03;4.50;;;15.10;99.90;;;;;;2078740;28;20037;-69
2022/06/28 02:52:09;;;;;;;9.02;5.10;;;15.10;99.90;;;;;;2072760;28;20018;-69
2022/06/28 02:53:09;;;;;;;6.88;4.95;;;15.10;99.90;;;;;;2076850;28;20096;-69
2022/06/28 02:54:10;;;;;;;6.05;4.95;;;15.10;99.90;;;;;;2076058;28;20514;-69
2022/06/28 02:55:11;;;;;;;6.45;4.50;;;15.20;99.90;;;;;;2078594;28;20027;-69
2022/06/28 02:56:12;;;;;;;5.03;4.53;;;15.10;99.90;;;;;;2077310;28;20617;-69
2022/06/28 02:57:12;;;;;;;5.75;4.70;;;15.20;99.90;;;;;;2076435;28;20029;-69
2022/06/28 02:58:13;;;;;;;6.00;5.25;;;15.20;99.90;;;;;;2075231;28;20025;-69
2022/06/28 02:59:13;;;;;;;7.10;5.22;;;15.20;99.90;;;;;;2075127;28;20018;-69
2022/06/28 03:00:17;;;;;;;6.40;4.82;;;15.20;99.90;;;;;;2076215;28;20399;-69
2022/06/28 03:01:18;;;;;;;5.22;4.43;;;15.10;99.90;;;;;;2077168;28;20508;-69
2022/06/28 03:02:18;;;;;;;4.97;4.57;;;15.10;99.90;;;;;;2076825;28;20461;-69
2022/06/28 03:03:19;;;;;;;6.82;5.43;;;15.10;99.90;;;;;;2077912;28;20045;-69
2022/06/28 03:04:20;;;;;;;5.90;5.32;;;15.10;99.90;;;;;;2077385;28;20117;-69
2022/06/28 03:05:21;;;;;;;7.32;4.57;;;15.20;99.90;;;;;;2078025;28;20030;-69
2022/06/28 03:06:22;;;;;;;6.45;5.22;;;15.20;99.90;;;;;;2075897;28;20033;-69
2022/06/28 03:07:23;;;;;;;8.43;4.57;;;15.20;99.90;;;;;;2076186;28;20030;-69
2022/06/28 03:08:23;;;;;;;6.03;4.70;;;15.10;99.90;;;;;;2072716;28;20040;-69
2022/06/28 03:09:24;;;;;;;6.95;4.90;;;15.20;99.90;;;;;;2074928;28;20091;-69
2022/06/28 03:10:24;;;;;;;8.75;4.82;;;15.20;99.90;;;;;;2075579;28;20668;-69
2022/06/28 03:11:25;;;;;;;5.43;4.18;;;15.10;99.90;;;;;;2074802;28;20042;-69
2022/06/28 03:12:26;;;;;;;7.90;4.90;;;15.20;99.90;;;;;;2075665;28;20855;-69
2022/06/28 03:13:26;;;;;;;6.75;4.68;;;15.20;99.90;;;;;;2070683;28;20026;-69
2022/06/28 03:14:27;;;;;;;4.45;4.05;;;15.20;99.90;;;;;;2069385;28;20453;-69
2022/06/28 03:15:28;;;;;;;6.50;4.55;;;15.20;99.90;;;;;;2073510;28;20068;-69
2022/06/28 03:16:28;;;;;;;6.45;5.22;;;15.20;99.90;;;;;;2078006;28;20029;-69
2022/06/28 03:17:29;;;;;;;4.72;4.00;;;15.20;99.90;;;;;;2077599;28;20560;-69
2022/06/28 03:18:29;;;;;;;4.68;4.10;;;15.20;99.90;;;;;;2079052;28;20044;-69
2022/06/28 03:19:30;;;;;;;5.03;4.00;;;15.20;99.90;;;;;;2073979;28;20037;-69
2022/06/28 03:20:31;;;;;;;5.50;4.30;;;15.20;99.90;;;;;;2076998;28;20053;-69
2022/06/28 03:21:31;;;;;;;5.22;4.15;;;15.20;99.90;;;;;;2077241;28;20392;-69
2022/06/28 03:22:32;;;;;;;6.50;5.22;;;15.20;99.90;;;;;;2076566;28;20021;-69
2022/06/28 03:23:32;;;;;;;6.63;4.68;;;15.20;99.90;;;;;;2075846;28;20477;-68
2022/06/28 03:24:33;;;;;;;9.25;4.50;;;15.10;99.90;;;;;;2073771;28;20045;-68
2022/06/28 03:25:34;;;;;;;6.93;3.88;;;15.20;99.90;;;;;;2076095;28;20857;-68
2022/06/28 03:26:35;;;;;;;4.10;3.70;;;15.10;99.90;;;;;;2077409;28;20397;-68
2022/06/28 03:27:36;;;;;;;5.90;4.80;;;15.20;99.90;;;;;;2074691;28;20026;-68
2022/06/28 03:28:36;;;;;;;4.07;3.60;;;15.20;99.90;;;;;;2076153;28;20026;-68
2022/06/28 03:29:37;;;;;;;6.22;4.15;;;15.20;99.90;;;;;;2076743;28;20107;-68
2022/06/28 03:30:37;;;;;;;9.63;4.38;;;15.20;99.90;;;;;;2077202;28;20064;-68
2022/06/28 03:31:38;;;;;;;5.55;3.90;;;15.20;99.90;;;;;;2077435;28;20040;-68
2022/06/28 03:32:39;;;;;;;4.60;3.60;;;15.20;99.90;;;;;;2077125;28;20021;-68
2022/06/28 03:33:39;;;;;;;5.18;3.85;;;15.10;99.90;;;;;;2077526;28;20026;-68
2022/06/28 03:34:40;;;;;;;4.03;3.63;;;15.20;99.90;;;;;;2076074;28;20022;-68
2022/06/28 03:35:40;;;;;;;5.90;4.50;;;15.20;99.90;;;;;;2075998;28;20064;-69
2022/06/28 03:36:41;;;;;;;5.43;4.05;;;15.10;99.90;;;;;;2078596;28;20396;-69
2022/06/28 03:37:42;;;;;;;9.82;4.68;;;15.10;99.90;;;;;;2076762;28;20253;-69
2022/06/28 03:38:44;;;;;;;3.83;3.45;;;15.10;99.90;;;;;;2075877;28;20136;-69
2022/06/28 03:39:45;;;;;;;5.47;3.55;;;15.10;99.90;;;;;;2076395;28;20025;-69
2022/06/28 03:40:45;;;;;;;6.10;3.95;;;15.10;99.90;;;;;;2076208;28;20061;-69
2022/06/28 03:41:46;;;;;;;6.35;4.28;;;15.10;99.90;;;;;;2078116;28;20392;-69
2022/06/28 03:42:47;;;;;;;5.32;4.28;;;15.10;99.90;;;;;;2075642;28;20536;-69
2022/06/28 03:43:51;;;;;;;4.53;3.80;;;15.10;99.90;;;;;;2076813;28;20117;-69
2022/06/28 03:44:51;;;;;;;7.95;4.18;;;15.10;99.90;;;;;;2075197;28;20028;-69
2022/06/28 03:45:52;;;;;;;9.50;4.50;;;15.10;99.90;;;;;;2076371;28;20018;-69
2022/06/28 03:46:52;;;;;;;4.43;4.03;;;15.10;99.90;;;;;;2077864;28;20049;-69
2022/06/28 03:47:53;;;;;;;4.72;3.90;;;15.10;99.90;;;;;;2076322;28;20033;-69
2022/06/28 03:48:54;;;;;;;4.80;4.03;;;15.10;99.90;;;;;;2076811;28;20022;-69
2022/06/28 03:49:54;;;;;;;4.85;4.10;;;15.10;99.90;;;;;;2077884;28;20034;-69
2022/06/28 03:50:55;;;;;;;6.30;3.70;;;15.10;99.90;;;;;;2077009;28;20751;-69
2022/06/28 03:51:56;;;;;;;4.57;3.83;;;15.10;99.90;;;;;;2078718;28;20068;-69
2022/06/28 03:52:56;;;;;;;7.78;4.63;;;15.10;99.90;;;;;;2075077;28;20020;-69
2022/06/28 03:53:58;;;;;;;6.60;4.05;;;15.10;99.90;;;;;;2076591;28;20025;-69
2022/06/28 03:54:59;;;;;;;6.45;3.85;;;15.10;99.90;;;;;;2075511;28;20037;-69
2022/06/28 03:55:59;;;;;;;3.88;3.22;;;15.10;99.90;;;;;;2073253;28;20023;-69
2022/06/28 03:57:03;;;;;;;6.10;4.30;;;15.10;99.90;;;;;;2077128;28;20030;-69
2022/06/28 03:58:04;;;;;;;5.20;3.63;;;15.10;99.90;;;;;;2077836;28;20477;-69
2022/06/28 03:59:05;;;;;;;7.63;3.90;;;15.20;99.90;;;;;;2077439;28;20429;-69
2022/06/28 04:00:06;;;;;;;5.97;3.95;;;15.20;99.90;;;;;;2077213;28;20064;-69
2022/06/28 04:01:07;;;;;;;5.72;4.18;;;15.30;99.90;;;;;;2076345;28;20032;-68
2022/06/28 04:02:07;;;;;;;6.07;3.65;;;15.30;99.90;;;;;;2075752;28;20396;-68
2022/06/28 04:03:08;;;;;;;5.18;4.13;;;15.40;99.90;;;;;;2077173;28;20107;-68
2022/06/28 04:04:08;;;;;;;4.65;3.97;;;15.50;99.90;;;;;;2074631;28;20528;-69
2022/06/28 04:05:09;;;;;;;5.70;3.58;;;15.60;99.90;;;;;;2075825;28;20100;-69
2022/06/28 04:06:10;;;;;;;4.90;3.85;;;15.70;99.90;;;;;;2076295;28;20041;-69
2022/06/28 04:07:10;;;;;;;5.10;4.15;;;15.90;99.90;;;;;;2074933;28;20096;-69
2022/06/28 04:08:11;;;;;;;4.30;3.45;;;16.00;99.90;;;;;;2076760;28;20032;-69
2022/06/28 04:09:12;;;;;;;6.05;3.22;;;16.10;99.90;;;;;;2077383;28;20080;-69
2022/06/28 04:10:12;;;;;;;4.85;3.70;;;16.30;99.90;;;;;;2076230;28;20090;-69
2022/06/28 04:11:16;;;;;;;5.47;3.85;;;16.40;99.90;;;;;;2076518;28;20029;-69
2022/06/28 04:12:17;;;;;;;5.28;3.40;;;16.60;99.90;;;;;;2074084;28;20089;-69
2022/06/28 04:13:17;;;;;;;4.22;3.20;;;16.80;99.90;;;;;;2078478;28;20025;-69
2022/06/28 04:14:18;;;;;;;6.90;4.00;;;17.00;99.90;;;;;;2075846;28;20492;-69
2022/06/28 04:15:18;;;;;;;5.80;3.90;;;17.40;99.90;;;;;;2075968;28;20605;-69
2022/06/28 04:16:21;;;;;;;4.15;3.75;;;17.70;99.90;;;;;;2075346;28;20048;-69
2022/06/28 04:17:21;;;;;;;8.45;3.97;;;18.00;99.90;;;;;;2077229;28;20117;-69
2022/06/28 04:18:25;;;;;;;5.70;3.83;;;18.30;99.90;;;;;;2075937;28;20038;-69
2022/06/28 04:19:25;;;;;;;5.70;4.10;;;18.60;99.90;;;;;;2074853;28;20034;-69
2022/06/28 04:20:26;;;;;;;5.95;4.03;;;18.90;99.90;;;;;;2077503;28;20022;-69
2022/06/28 04:21:27;;;;;;;3.75;3.40;;;19.10;99.90;;;;;;2076445;28;20029;-69
2022/06/28 04:22:27;;;;;;;10.05;4.07;;;19.40;99.90;;;;;;2075616;28;20036;-69
2022/06/28 04:23:28;;;;;;;4.93;3.95;;;19.60;99.90;;;;;;2075222;28;20114;-69
2022/06/28 04:24:29;;;;;;;5.68;3.78;;;19.90;99.90;;;;;;2077215;28;20033;-69
2022/06/28 04:25:29;;;;;;;5.85;4.15;;;20.10;99.90;;;;;;2076751;28;20400;-69
2022/06/28 04:26:30;;;;;;;4.20;3.55;;;20.40;99.90;;;;;;2077021;28;20065;-69
2022/06/28 04:27:31;;;;;;;4.70;3.88;;;20.50;99.90;;;;;;2076247;28;20029;-69
2022/06/28 04:28:32;;;;;;;7.30;3.92;;;20.60;99.90;;;;;;2071416;28;20033;-69
2022/06/28 04:29:32;;;;;;;5.00;4.50;;;20.70;99.90;;;;;;2073758;28;20025;-69
2022/06/28 04:30:33;;;;;;;5.22;4.25;;;20.70;99.90;;;;;;2077014;28;20040;-69
2022/06/28 04:31:33;;;;;;;6.20;3.97;;;20.60;99.90;;;;;;2074520;28;20030;-69
2022/06/28 04:32:34;;;;;;;5.57;4.05;;;20.60;99.90;;;;;;2075708;28;20129;-69
2022/06/28 04:33:35;;;;;;;6.75;4.28;;;20.50;99.90;;;;;;2074387;28;20030;-69
2022/06/28 04:34:35;;;;;;;4.22;3.80;;;20.40;99.90;;;;;;2067625;28;20026;-69
2022/06/28 04:35:36;;;;;;;6.10;4.57;;;20.30;99.90;;;;;;2066231;28;20065;-69
2022/06/28 04:36:37;;;;;;;6.18;4.10;;;20.30;99.90;;;;;;2075664;28;20026;-69
2022/06/28 04:37:37;;;;;;;5.03;4.07;;;20.30;99.90;;;;;;2076914;28;20036;-69
2022/06/28 04:38:38;;;;;;;9.35;4.72;;;20.20;99.90;;;;;;2077721;28;20492;-69
2022/06/28 04:39:38;;;;;;;4.95;4.35;;;20.20;99.90;;;;;;2076605;28;20056;-69
2022/06/28 04:40:39;;;;;;;5.20;4.10;;;20.20;99.90;;;;;;2077991;28;20052;-69
2022/06/28 04:41:40;;;;;;;6.60;4.20;;;20.20;99.90;;;;;;2078070;28;20041;-69
2022/06/28 04:42:40;;;;;;;6.00;4.10;;;20.20;99.90;;;;;;2078725;28;20064;-69
2022/06/28 04:43:41;;;;;;;5.32;3.95;;;20.20;99.90;;;;;;2076968;28;20028;-69
2022/06/28 04:44:42;;;;;;;4.88;3.95;;;20.20;99.90;;;;;;2076378;28;20832;-69
2022/06/28 04:45:42;;;;;;;6.13;3.90;;;20.20;99.90;;;;;;2077786;28;20044;-69
2022/06/28 04:46:43;;;;;;;4.57;3.55;;;20.20;99.90;;;;;;2078010;28;20021;-69
2022/06/28 04:47:44;;;;;;;6.00;4.00;;;20.30;99.90;;;;;;2077361;28;20033;-69
2022/06/28 04:48:44;;;;;;;5.95;3.88;;;20.30;99.90;;;;;;2075731;28;20021;-69
2022/06/28 04:49:45;;;;;;;6.15;3.67;;;20.40;99.90;;;;;;2076695;28;20018;-69
2022/06/28 04:50:45;;;;;;;5.85;3.88;;;20.40;99.90;;;;;;2075466;28;20030;-69
2022/06/28 04:51:46;;;;;;;4.35;3.70;;;20.50;99.90;;;;;;2075710;28;20068;-69
2022/06/28 04:52:46;;;;;;;4.43;4.03;;;20.50;99.90;;;;;;2075874;28;20034;-69
2022/06/28 04:53:50;;;;;;;4.57;4.18;;;20.50;99.90;;;;;;2075398;28;20029;-69
2022/06/28 04:54:51;;;;;;;6.70;4.03;;;20.60;99.90;;;;;;2077489;28;20056;-69
2022/06/28 04:55:51;;;;;;;6.03;3.97;;;20.60;99.90;;;;;;2077661;28;20017;-69
2022/06/28 04:56:52;;;;;;;9.23;4.57;;;20.70;99.90;;;;;;2078485;28;20141;-69
2022/06/28 04:57:53;;;;;;;7.50;3.90;;;20.70;99.90;;;;;;2079791;28;20107;-69
2022/06/28 04:58:53;;;;;;;6.60;4.03;;;20.80;99.90;;;;;;2077486;28;20022;-69
2022/06/28 04:59:54;;;;;;;6.97;4.93;;;20.80;99.90;;;;;;2077719;28;20105;-69
2022/06/28 05:00:54;;;;;;;5.00;3.53;;;20.80;99.90;;;;;;2076781;28;20033;-69
2022/06/28 05:01:55;;;;;;;6.95;3.80;;;20.90;99.90;;;;;;2075129;28;20036;-69
2022/06/28 05:02:56;;;;;;;4.65;3.72;;;20.90;99.90;;;;;;2078899;28;20492;-69
2022/06/28 05:03:56;;;;;;;5.90;4.28;;;20.90;99.90;;;;;;2074243;28;20108;-69
2022/06/28 05:04:57;;;;;;;5.68;4.18;;;21.00;99.90;;;;;;2077913;28;20027;-69
2022/06/28 05:05:58;;;;;;;4.90;4.38;;;21.10;99.90;;;;;;2076694;28;20536;-69
2022/06/28 05:06:58;;;;;;;5.60;3.65;;;21.10;99.90;;;;;;2075030;28;20060;-69
2022/06/28 05:07:59;;;;;;;7.10;3.83;;;21.20;99.90;;;;;;2078724;28;20025;-69
2022/06/28 05:09:00;;;;;;;4.60;3.53;;;21.20;99.90;;;;;;2078402;28;20082;-69
2022/06/28 05:10:01;;;;;;;4.15;3.60;;;21.30;99.90;;;;;;2074953;28;20489;-69
2022/06/28 05:11:02;;;;;;;4.10;3.70;;;21.30;99.90;;;;;;2079982;28;20864;-69
2022/06/28 05:12:03;;;;;;;6.22;4.50;;;21.40;99.90;;;;;;2079515;28;20454;-69
2022/06/28 05:13:04;;;;;;;4.10;3.65;;;21.40;99.90;;;;;;2081051;28;20737;-69
2022/06/28 05:14:07;;;;;;;4.57;4.13;;;21.40;99.90;;;;;;2077196;28;20076;-69
2022/06/28 05:15:08;;;;;;;4.72;3.47;;;21.50;99.90;;;;;;2080142;28;20021;-69
2022/06/28 05:16:08;;;;;;;5.78;3.75;;;21.60;99.90;;;;;;2079363;28;20377;-69
2022/06/28 05:17:09;;;;;;;4.85;3.30;;;21.60;99.90;;;;;;2079053;28;20052;-69
2022/06/28 05:18:09;;;;;;;6.53;4.00;;;21.70;99.90;;;;;;2078540;28;20052;-69
2022/06/28 05:19:10;;;;;;;5.47;3.60;;;21.70;99.90;;;;;;2077049;28;20470;-69
2022/06/28 05:20:11;;;;;;;3.78;3.42;;;21.80;99.90;;;;;;2077878;28;20037;-69
2022/06/28 05:21:12;;;;;;;4.20;3.33;;;21.80;99.90;;;;;;2076438;28;20359;-69
2022/06/28 05:22:14;;;;;;;5.95;3.15;;;21.90;99.90;;;;;;2077214;28;20036;-69
2022/06/28 05:23:14;;;;;;;5.65;3.53;;;22.00;99.90;;;;;;2078719;28;20017;-69
2022/06/28 05:24:15;;;;;;;25.48;3.90;;;22.00;99.90;;;;;;2069180;28;20596;-69
2022/06/28 05:25:16;;;;;;;4.40;3.38;;;22.10;99.90;;;;;;2068000;28;20019;-69